createdAt,value
2022-12-25T00:00:39.730Z,8.80
2022-12-25T00:01:41.168Z,14.73
2022-12-25T00:02:42.657Z,12.90
2022-12-25T00:03:44.433Z,10.68
2022-12-25T00:04:46.186Z,11.63
2022-12-25T00:05:50.348Z,11.23
2022-12-25T00:06:51.834Z,9.93
2022-12-25T00:07:53.242Z,9.00
2022-12-25T00:08:54.664Z,8.45
2022-12-25T00:09:56.108Z,8.52
2022-12-25T00:11:03.913Z,11.35
2022-12-25T00:12:08.113Z,10.57
2022-12-25T00:13:09.533Z,13.55
2022-12-25T00:14:11.006Z,12.85
2022-12-25T00:15:12.413Z,10.77
2022-12-25T00:16:22.826Z,11.63
2022-12-25T00:17:24.334Z,9.80
2022-12-25T00:18:25.910Z,11.75
2022-12-25T00:19:27.360Z,13.82
2022-12-25T00:20:28.828Z,10.30
2022-12-25T00:21:30.427Z,9.10
2022-12-25T00:22:31.891Z,9.05
2022-12-25T00:23:34.698Z,10.95
2022-12-25T00:24:36.167Z,9.57
2022-12-25T00:25:42.044Z,13.52
2022-12-25T00:26:43.445Z,13.80
2022-12-25T00:27:44.880Z,10.65
2022-12-25T00:28:46.399Z,9.77
2022-12-25T00:29:47.826Z,11.57
2022-12-25T00:30:49.434Z,12.27
2022-12-25T00:31:50.963Z,9.20
2022-12-25T00:32:52.463Z,10.30
2022-12-25T00:33:56.649Z,17.77
2022-12-25T00:34:58.104Z,11.73
2022-12-25T00:36:02.666Z,12.77
2022-12-25T00:37:04.444Z,10.98
2022-12-25T00:38:05.937Z,10.30
2022-12-25T00:39:07.325Z,13.50
2022-12-25T00:40:09.412Z,12.93
2022-12-25T00:42:20.045Z,9.85
2022-12-25T00:43:24.457Z,10.23
2022-12-25T00:44:25.922Z,8.30
2022-12-25T00:45:27.400Z,9.75
2022-12-25T00:46:28.882Z,14.75
2022-12-25T00:47:30.396Z,9.45
2022-12-25T00:48:32.830Z,10.30
2022-12-25T00:49:34.271Z,8.80
2022-12-25T00:50:38.665Z,9.13
2022-12-25T00:51:40.283Z,10.38
2022-12-25T00:52:41.738Z,10.07
2022-12-25T00:53:43.163Z,10.23
2022-12-25T00:54:44.615Z,10.60
2022-12-25T00:55:57.946Z,9.95
2022-12-25T00:57:08.052Z,11.85
2022-12-25T00:58:14.429Z,11.73
2022-12-25T00:59:16.154Z,10.52
2022-12-25T01:00:17.720Z,11.05
2022-12-25T01:01:19.270Z,15.95
2022-12-25T01:02:23.978Z,11.27
2022-12-25T01:03:26.466Z,10.70
2022-12-25T01:04:27.936Z,12.73
2022-12-25T01:05:29.400Z,12.75
2022-12-25T01:06:31.260Z,11.10
2022-12-25T01:07:32.891Z,10.13
2022-12-25T01:08:37.110Z,9.88
2022-12-25T01:09:57.529Z,9.00
2022-12-25T01:11:02.756Z,10.23
2022-12-25T01:12:04.243Z,11.63
2022-12-25T01:13:05.732Z,10.05
2022-12-25T01:14:07.187Z,13.88
2022-12-25T01:15:10.707Z,11.50
2022-12-25T01:16:12.239Z,11.35
2022-12-25T01:17:13.884Z,9.15
2022-12-25T01:18:15.428Z,16.42
2022-12-25T01:19:16.816Z,13.77
2022-12-25T01:20:19.002Z,9.00
2022-12-25T01:22:25.286Z,13.05
2022-12-25T01:23:26.715Z,13.80
2022-12-25T01:24:28.124Z,11.98
2022-12-25T01:25:29.552Z,12.30
2022-12-25T01:26:30.982Z,11.02
2022-12-25T01:27:33.405Z,10.82
2022-12-25T01:28:35.337Z,10.82
2022-12-25T01:29:37.853Z,11.00
2022-12-25T01:30:40.417Z,11.75
2022-12-25T01:31:41.903Z,11.80
2022-12-25T01:32:43.334Z,12.10
2022-12-25T01:33:45.566Z,10.95
2022-12-25T01:34:50.608Z,10.18
2022-12-25T01:35:58.528Z,12.13
2022-12-25T01:36:59.989Z,13.13
2022-12-25T01:38:01.428Z,11.73
2022-12-25T01:39:03.554Z,14.10
2022-12-25T01:41:06.627Z,9.60
2022-12-25T01:42:16.449Z,13.65
2022-12-25T01:43:24.664Z,13.50
2022-12-25T01:45:41.940Z,11.48
2022-12-25T01:46:44.118Z,11.40
2022-12-25T01:48:47.164Z,9.93
2022-12-25T01:49:50.614Z,11.23
2022-12-25T01:50:56.155Z,12.30
2022-12-25T01:52:03.066Z,11.43
2022-12-25T01:53:05.807Z,11.45
2022-12-25T01:54:13.183Z,11.80
2022-12-25T01:55:15.408Z,11.15
2022-12-25T01:56:16.948Z,12.52
2022-12-25T01:57:22.642Z,12.70
2022-12-25T01:58:25.219Z,13.52
2022-12-25T01:59:29.169Z,11.05
2022-12-25T02:00:31.190Z,11.23
2022-12-25T02:01:32.734Z,11.82
2022-12-25T02:02:35.179Z,13.65
2022-12-25T02:03:37.023Z,12.13
2022-12-25T02:04:43.657Z,16.08
2022-12-25T02:05:46.244Z,11.68
2022-12-25T02:06:51.393Z,10.15
2022-12-25T02:07:53.646Z,8.02
2022-12-25T02:08:55.392Z,9.63
2022-12-25T02:09:56.806Z,11.07
2022-12-25T02:11:04.428Z,15.20
2022-12-25T02:12:07.531Z,13.30
2022-12-25T02:13:09.306Z,12.02
2022-12-25T02:14:13.790Z,12.20
2022-12-25T02:15:18.813Z,13.02
2022-12-25T02:16:23.534Z,12.60
2022-12-25T02:17:35.802Z,12.00
2022-12-25T02:18:54.604Z,15.20
2022-12-25T02:20:33.594Z,12.15
2022-12-25T02:22:04.571Z,13.57
2022-12-25T02:23:43.656Z,11.73
2022-12-25T02:24:50.110Z,11.60
2022-12-25T02:26:03.669Z,10.63
2022-12-25T02:27:14.007Z,9.95
2022-12-25T02:28:32.450Z,9.82
2022-12-25T02:29:50.480Z,8.93
2022-12-25T02:31:01.640Z,10.40
2022-12-25T02:32:30.178Z,11.13
2022-12-25T02:34:03.092Z,10.13
2022-12-25T02:35:07.477Z,9.80
2022-12-25T02:36:13.720Z,11.80
2022-12-25T02:37:23.345Z,10.48
2022-12-25T02:38:32.152Z,11.95
2022-12-25T02:39:58.023Z,10.75
2022-12-25T02:41:06.726Z,11.48
2022-12-25T02:42:13.573Z,11.15
2022-12-25T02:43:46.092Z,12.98
2022-12-25T02:45:09.859Z,12.07
2022-12-25T02:46:34.322Z,12.50
2022-12-25T02:47:57.032Z,10.77
2022-12-25T02:49:21.364Z,12.80
2022-12-25T02:50:43.148Z,12.02
2022-12-25T02:52:14.342Z,11.32
2022-12-25T02:53:34.365Z,11.40
2022-12-25T02:55:02.967Z,11.23
2022-12-25T02:56:23.309Z,13.05
2022-12-25T02:57:48.674Z,12.38
2022-12-25T02:59:09.125Z,18.83
2022-12-25T03:00:36.902Z,13.32
2022-12-25T03:01:57.319Z,11.48
2022-12-25T03:03:19.661Z,10.23
2022-12-25T03:04:43.486Z,10.85
2022-12-25T03:06:04.151Z,12.05
2022-12-25T03:07:14.546Z,13.82
2022-12-25T03:08:24.639Z,12.00
2022-12-25T03:09:50.459Z,10.45
2022-12-25T03:11:22.952Z,18.38
2022-12-25T03:12:46.354Z,10.13
2022-12-25T03:13:51.594Z,13.05
2022-12-25T03:15:11.638Z,11.55
2022-12-25T03:16:31.388Z,12.88
2022-12-25T03:17:33.564Z,11.45
2022-12-25T03:19:54.898Z,11.02
2022-12-25T03:21:15.287Z,11.70
2022-12-25T03:22:46.724Z,10.68
2022-12-25T03:24:13.127Z,13.63
2022-12-25T03:25:34.374Z,11.75
2022-12-25T03:26:54.156Z,16.67
2022-12-25T03:27:57.195Z,11.27
2022-12-25T03:28:58.664Z,11.18
2022-12-25T03:30:18.943Z,12.63
2022-12-25T03:32:58.524Z,11.50
2022-12-25T03:34:30.821Z,11.40
2022-12-25T03:37:15.254Z,10.13
2022-12-25T03:38:50.410Z,10.10
2022-12-25T03:40:28.790Z,10.13
2022-12-25T03:41:59.660Z,11.23
2022-12-25T03:43:51.449Z,10.07
2022-12-25T03:45:05.668Z,10.07
2022-12-25T03:47:58.152Z,8.93
2022-12-25T03:49:29.669Z,11.02
2022-12-25T03:50:55.549Z,10.70
2022-12-25T03:52:19.957Z,9.07
2022-12-25T03:53:56.500Z,10.95
2022-12-25T03:55:18.873Z,11.43
2022-12-25T03:56:39.085Z,10.65
2022-12-25T03:59:23.509Z,8.55
2022-12-25T04:00:43.776Z,10.60
2022-12-25T04:02:03.596Z,9.70
2022-12-25T04:03:23.556Z,9.45
2022-12-25T04:04:43.425Z,10.52
2022-12-25T04:06:03.351Z,10.70
2022-12-25T04:07:23.260Z,11.07
2022-12-25T04:08:43.150Z,10.55
2022-12-25T04:10:02.973Z,10.02
2022-12-25T04:11:22.832Z,10.23
2022-12-25T04:12:42.600Z,10.20
2022-12-25T04:14:02.417Z,11.43
2022-12-25T04:15:22.862Z,11.52
2022-12-25T04:16:42.965Z,8.63
2022-12-25T04:18:02.766Z,10.15
2022-12-25T04:19:22.720Z,10.13
2022-12-25T04:20:43.092Z,10.07
2022-12-25T04:22:02.752Z,9.88
2022-12-25T04:23:23.240Z,9.32
2022-12-25T04:24:44.457Z,10.63
2022-12-25T04:26:04.360Z,10.25
2022-12-25T04:27:24.364Z,9.30
2022-12-25T04:28:44.286Z,10.23
2022-12-25T04:30:04.189Z,10.40
2022-12-25T04:31:24.825Z,8.32
2022-12-25T04:32:45.116Z,10.38
2022-12-25T04:34:04.852Z,8.98
2022-12-25T04:35:27.099Z,8.48
2022-12-25T04:36:28.525Z,7.97
2022-12-25T04:37:30.009Z,9.27
2022-12-25T04:38:40.076Z,10.52
2022-12-25T04:39:41.520Z,10.98
2022-12-25T04:40:46.061Z,10.32
2022-12-25T04:41:50.467Z,10.23
2022-12-25T04:42:52.612Z,9.80
2022-12-25T04:44:55.362Z,8.60
2022-12-25T04:45:59.042Z,9.55
2022-12-25T04:47:09.119Z,9.90
2022-12-25T04:48:25.810Z,10.00
2022-12-25T04:49:29.896Z,11.15
2022-12-25T04:50:31.382Z,12.18
2022-12-25T04:51:32.815Z,11.35
2022-12-25T04:52:39.314Z,12.55
2022-12-25T04:53:42.303Z,11.88
2022-12-25T04:54:43.739Z,10.77
2022-12-25T04:55:45.377Z,10.70
2022-12-25T04:56:46.794Z,10.60
2022-12-25T04:57:50.936Z,10.77
2022-12-25T04:58:56.119Z,11.77
2022-12-25T04:59:57.503Z,11.13
2022-12-25T05:01:02.626Z,12.48
2022-12-25T05:02:07.043Z,10.52
2022-12-25T05:03:08.669Z,9.50
2022-12-25T05:04:10.264Z,10.73
2022-12-25T05:05:11.706Z,10.77
2022-12-25T05:06:13.164Z,10.18
2022-12-25T05:07:14.629Z,10.63
2022-12-25T05:08:16.324Z,10.07
2022-12-25T05:09:17.772Z,10.68
2022-12-25T05:10:19.254Z,8.85
2022-12-25T05:11:20.711Z,9.90
2022-12-25T05:12:22.137Z,9.90
2022-12-25T05:13:24.175Z,11.32
2022-12-25T05:14:25.597Z,11.60
2022-12-25T05:15:27.101Z,11.10
2022-12-25T05:16:28.783Z,10.68
2022-12-25T05:17:30.232Z,10.18
2022-12-25T05:18:31.789Z,11.35
2022-12-25T05:19:33.263Z,11.65
2022-12-25T05:20:39.689Z,11.02
2022-12-25T05:21:41.495Z,10.98
2022-12-25T05:22:42.924Z,11.32
2022-12-25T05:23:52.154Z,10.93
2022-12-25T05:24:53.567Z,11.20
2022-12-25T05:25:55.025Z,11.50
2022-12-25T05:26:56.455Z,11.50
2022-12-25T05:27:57.890Z,11.75
2022-12-25T05:28:59.325Z,10.68
2022-12-25T05:30:00.719Z,13.20
2022-12-25T05:31:05.454Z,13.38
2022-12-25T05:32:06.936Z,13.50
2022-12-25T05:33:08.349Z,13.50
2022-12-25T05:34:09.772Z,14.60
2022-12-25T05:35:11.222Z,13.73
2022-12-25T05:36:13.021Z,14.35
2022-12-25T05:37:14.457Z,14.20
2022-12-25T05:38:15.879Z,12.30
2022-12-25T05:39:17.287Z,12.18
2022-12-25T05:40:18.720Z,12.75
2022-12-25T05:41:20.279Z,17.02
2022-12-25T05:42:21.658Z,15.65
2022-12-25T05:43:23.954Z,16.85
2022-12-25T05:44:25.427Z,14.35
2022-12-25T05:45:26.846Z,11.50
2022-12-25T05:46:31.119Z,13.77
2022-12-25T05:47:32.589Z,13.43
2022-12-25T05:48:36.674Z,16.13
2022-12-25T05:49:38.150Z,14.90
2022-12-25T05:50:39.592Z,15.70
2022-12-25T05:51:41.489Z,10.80
2022-12-25T05:52:42.946Z,13.68
2022-12-25T05:53:44.369Z,14.77
2022-12-25T05:54:45.779Z,13.60
2022-12-25T05:55:47.247Z,18.83
2022-12-25T05:56:48.690Z,13.70
2022-12-25T05:57:50.131Z,20.33
2022-12-25T05:58:54.317Z,14.88
2022-12-25T05:59:55.783Z,16.63
2022-12-25T06:00:57.865Z,16.00
2022-12-25T06:02:02.608Z,21.50
2022-12-25T06:03:04.672Z,18.77
2022-12-25T06:05:14.255Z,10.48
2022-12-25T06:06:15.801Z,11.50
2022-12-25T06:07:17.240Z,15.02
2022-12-25T06:08:18.753Z,17.88
2022-12-25T06:09:20.193Z,18.23
2022-12-25T06:10:21.762Z,17.58
2022-12-25T06:11:23.272Z,17.27
2022-12-25T06:12:24.748Z,14.30
2022-12-25T06:13:26.160Z,16.23
2022-12-25T06:14:27.585Z,15.93
2022-12-25T06:15:29.259Z,14.52
2022-12-25T06:16:37.678Z,15.00
2022-12-25T06:17:39.792Z,14.52
2022-12-25T06:18:43.814Z,16.83
2022-12-25T06:19:45.264Z,13.05
2022-12-25T06:20:46.695Z,16.25
2022-12-25T06:21:48.319Z,20.23
2022-12-25T06:22:49.769Z,14.38
2022-12-25T06:23:51.412Z,18.67
2022-12-25T06:24:52.931Z,15.85
2022-12-25T06:25:54.334Z,15.20
2022-12-25T06:26:55.810Z,17.52
2022-12-25T06:27:57.229Z,20.92
2022-12-25T06:28:58.768Z,20.17
2022-12-25T06:30:00.209Z,19.17
2022-12-25T06:31:17.230Z,17.02
2022-12-25T06:32:18.733Z,16.33
2022-12-25T06:33:20.177Z,20.48
2022-12-25T06:34:21.667Z,18.92
2022-12-25T06:35:23.081Z,20.05
2022-12-25T06:36:26.447Z,17.60
2022-12-25T06:37:27.875Z,15.77
2022-12-25T06:38:33.722Z,16.63
2022-12-25T06:39:36.399Z,21.75
2022-12-25T06:40:41.264Z,17.88
2022-12-25T06:41:42.728Z,18.25
2022-12-25T06:42:44.267Z,17.15
2022-12-25T06:43:53.924Z,17.85
2022-12-25T06:44:55.334Z,15.63
2022-12-25T06:45:56.798Z,15.60
2022-12-25T06:46:58.244Z,16.25
2022-12-25T06:47:59.695Z,15.93
2022-12-25T06:49:01.297Z,16.08
2022-12-25T06:50:02.888Z,14.07
2022-12-25T06:51:05.890Z,17.20
2022-12-25T06:52:10.406Z,15.48
2022-12-25T06:53:11.824Z,21.55
2022-12-25T06:54:13.417Z,17.58
2022-12-25T06:55:14.896Z,17.85
2022-12-25T06:56:19.073Z,16.42
2022-12-25T06:57:20.489Z,12.88
2022-12-25T06:58:22.522Z,16.70
2022-12-25T06:59:23.953Z,15.00
2022-12-25T07:00:27.180Z,13.07
2022-12-25T07:01:47.768Z,16.92
2022-12-25T07:02:49.834Z,14.45
2022-12-25T07:04:03.107Z,15.95
2022-12-25T07:05:05.204Z,16.60
2022-12-25T07:06:06.623Z,14.88
2022-12-25T07:07:09.808Z,18.17
2022-12-25T07:08:11.409Z,16.30
2022-12-25T07:09:13.076Z,15.45
2022-12-25T07:10:14.584Z,11.80
2022-12-25T07:11:16.227Z,13.68
2022-12-25T07:12:21.519Z,12.20
2022-12-25T07:13:22.937Z,13.13
2022-12-25T07:14:24.780Z,13.93
2022-12-25T07:15:28.658Z,16.25
2022-12-25T07:16:30.166Z,17.00
2022-12-25T07:17:34.401Z,17.05
2022-12-25T07:18:35.898Z,14.02
2022-12-25T07:19:44.421Z,15.10
2022-12-25T07:20:46.485Z,13.20
2022-12-25T07:21:47.980Z,11.30
2022-12-25T07:22:49.405Z,10.23
2022-12-25T07:23:50.963Z,12.60
2022-12-25T07:24:52.388Z,13.80
2022-12-25T07:25:58.362Z,13.27
2022-12-25T07:26:59.896Z,12.02
2022-12-25T07:28:01.309Z,12.65
2022-12-25T07:29:02.774Z,13.80
2022-12-25T07:30:04.873Z,13.60
2022-12-25T07:31:10.021Z,15.02
2022-12-25T07:32:11.814Z,20.00
2022-12-25T07:33:13.352Z,16.50
2022-12-25T07:34:17.251Z,19.13
2022-12-25T07:35:18.717Z,16.02
2022-12-25T07:36:20.820Z,14.52
2022-12-25T07:37:22.280Z,16.40
2022-12-25T07:38:23.675Z,19.90
2022-12-25T07:39:25.073Z,18.55
2022-12-25T07:40:26.492Z,17.88
2022-12-25T07:41:27.892Z,17.08
2022-12-25T07:42:29.283Z,16.63
2022-12-25T07:43:30.711Z,16.10
2022-12-25T07:44:32.095Z,18.27
2022-12-25T07:45:33.568Z,13.00
2022-12-25T07:46:35.034Z,12.20
2022-12-25T07:47:36.451Z,13.18
2022-12-25T07:48:37.857Z,13.43
2022-12-25T07:49:39.279Z,18.65
2022-12-25T07:50:40.698Z,15.65
2022-12-25T07:51:42.205Z,18.33
2022-12-25T07:52:44.064Z,19.95
2022-12-25T07:53:45.711Z,24.38
2022-12-25T07:54:47.186Z,20.25
2022-12-25T07:55:48.595Z,16.38
2022-12-25T07:56:52.258Z,19.05
2022-12-25T07:57:53.701Z,20.00
2022-12-25T07:58:55.146Z,16.42
2022-12-25T07:59:56.531Z,20.30
2022-12-25T08:01:04.631Z,18.85
2022-12-25T08:03:08.536Z,12.55
2022-12-25T08:04:11.575Z,11.20
2022-12-25T08:05:13.114Z,13.50
2022-12-25T08:06:14.530Z,16.10
2022-12-25T08:07:15.946Z,16.00
2022-12-25T08:08:17.392Z,20.98
2022-12-25T08:09:18.844Z,16.17
2022-12-25T08:10:20.277Z,18.35
2022-12-25T08:11:22.020Z,18.08
2022-12-25T08:12:23.447Z,13.52
2022-12-25T08:13:24.852Z,14.82
2022-12-25T08:14:26.585Z,14.90
2022-12-25T08:15:32.661Z,12.52
2022-12-25T08:16:34.862Z,12.13
2022-12-25T08:17:36.314Z,13.88
2022-12-25T08:18:39.680Z,15.65
2022-12-25T08:19:41.114Z,13.50
2022-12-25T08:20:42.532Z,16.98
2022-12-25T08:21:43.933Z,14.68
2022-12-25T08:22:50.921Z,12.52
2022-12-25T08:23:52.410Z,14.43
2022-12-25T08:24:53.834Z,16.02
2022-12-25T08:26:05.500Z,12.50
2022-12-25T08:27:08.535Z,13.90
2022-12-25T08:28:09.960Z,13.73
2022-12-25T08:29:14.676Z,13.35
2022-12-25T08:30:16.221Z,14.25
2022-12-25T08:31:28.733Z,13.40
2022-12-25T08:32:33.674Z,13.48
2022-12-25T08:33:35.696Z,14.98
2022-12-25T08:34:39.945Z,14.15
2022-12-25T08:35:41.416Z,11.95
2022-12-25T08:36:42.906Z,13.02
2022-12-25T08:37:44.357Z,16.30
2022-12-25T08:38:46.552Z,15.55
2022-12-25T08:39:47.998Z,14.88
2022-12-25T08:40:49.397Z,17.33
2022-12-25T08:41:50.862Z,12.68
2022-12-25T08:42:52.295Z,12.73
2022-12-25T08:43:53.845Z,14.13
2022-12-25T08:44:55.322Z,19.02
2022-12-25T08:45:56.897Z,17.40
2022-12-25T08:46:58.414Z,17.63
2022-12-25T08:47:59.953Z,18.20
2022-12-25T08:49:01.392Z,18.42
2022-12-25T08:50:02.997Z,18.80
2022-12-25T08:51:04.700Z,15.98
2022-12-25T08:52:08.133Z,17.50
2022-12-25T08:53:09.546Z,18.80
2022-12-25T08:54:11.043Z,15.93
2022-12-25T08:55:12.491Z,15.95
2022-12-25T08:56:14.949Z,18.95
2022-12-25T08:57:16.401Z,15.30
2022-12-25T08:58:17.877Z,15.25
2022-12-25T08:59:19.384Z,19.15
2022-12-25T09:00:23.962Z,24.08
2022-12-25T09:01:25.685Z,16.40
2022-12-25T09:02:27.424Z,14.95
2022-12-25T09:03:32.127Z,16.15
2022-12-25T09:04:33.679Z,19.10
2022-12-25T09:05:36.418Z,15.48
2022-12-25T09:06:38.094Z,13.98
2022-12-25T09:07:39.553Z,17.13
2022-12-25T09:08:48.086Z,17.05
2022-12-25T09:09:50.362Z,13.95
2022-12-25T09:10:51.773Z,14.82
2022-12-25T09:11:53.209Z,16.80
2022-12-25T09:12:54.636Z,17.98
2022-12-25T09:13:56.116Z,17.85
2022-12-25T09:14:57.528Z,17.80
2022-12-25T09:15:59.349Z,18.80
2022-12-25T09:17:00.826Z,15.48
2022-12-25T09:18:02.285Z,14.02
2022-12-25T09:19:03.796Z,19.42
2022-12-25T09:20:06.620Z,16.02
2022-12-25T09:21:11.437Z,16.05
2022-12-25T09:22:12.820Z,14.40
2022-12-25T09:23:14.563Z,16.55
2022-12-25T09:24:16.045Z,15.45
2022-12-25T09:25:17.576Z,15.32
2022-12-25T09:26:19.605Z,15.23
2022-12-25T09:27:21.407Z,15.05
2022-12-25T09:28:22.877Z,16.95
2022-12-25T09:29:24.611Z,20.33
2022-12-25T09:30:26.082Z,23.50
2022-12-25T09:31:27.548Z,18.13
2022-12-25T09:32:29.016Z,18.35
2022-12-25T09:33:30.676Z,18.65
2022-12-25T09:34:32.138Z,18.50
2022-12-25T09:35:33.631Z,18.20
2022-12-25T09:36:35.064Z,22.85
2022-12-25T09:37:36.768Z,27.50
2022-12-25T09:38:38.309Z,31.50
2022-12-25T09:39:46.092Z,27.05
2022-12-25T09:41:58.589Z,24.23
2022-12-25T09:43:02.510Z,20.63
2022-12-25T09:44:10.239Z,21.63
2022-12-25T09:45:21.984Z,23.45
2022-12-25T09:46:33.067Z,20.85
2022-12-25T09:47:42.362Z,23.30
2022-12-25T09:49:01.191Z,20.13
2022-12-25T09:50:21.461Z,22.00
2022-12-25T09:51:25.737Z,28.27
2022-12-25T09:52:54.569Z,26.50
2022-12-25T09:54:04.455Z,23.20
2022-12-25T09:55:19.700Z,18.08
2022-12-25T09:56:25.914Z,17.00
2022-12-25T09:57:27.405Z,23.08
2022-12-25T09:58:31.854Z,20.50
2022-12-25T09:59:33.323Z,24.08
2022-12-25T10:00:47.202Z,23.42
2022-12-25T10:02:10.247Z,27.80
2022-12-25T10:03:31.553Z,25.48
2022-12-25T10:04:47.929Z,23.83
2022-12-25T10:06:30.866Z,19.42
2022-12-25T10:07:38.051Z,27.80
2022-12-25T10:08:49.484Z,27.27
2022-12-25T10:10:22.049Z,20.42
2022-12-25T10:11:54.800Z,26.67
2022-12-25T10:13:22.082Z,34.17
2022-12-25T10:14:35.707Z,22.17
2022-12-25T10:15:49.228Z,20.55
2022-12-25T10:17:21.513Z,25.73
2022-12-25T10:18:33.757Z,22.73
2022-12-25T10:20:17.656Z,19.30
2022-12-25T10:21:20.489Z,22.38
2022-12-25T10:22:42.363Z,31.65
2022-12-25T10:23:51.513Z,31.67
2022-12-25T10:24:55.782Z,31.83
2022-12-25T10:25:57.309Z,35.25
2022-12-25T10:27:03.227Z,26.58
2022-12-25T10:28:14.506Z,22.95
2022-12-25T10:29:22.036Z,27.75
2022-12-25T10:30:26.509Z,31.08
2022-12-25T10:31:30.103Z,14.40
2022-12-25T10:32:32.703Z,14.68
2022-12-25T10:33:34.149Z,20.77
2022-12-25T10:34:38.575Z,20.50
2022-12-25T10:35:40.621Z,19.50
2022-12-25T10:36:44.690Z,17.33
2022-12-25T10:37:53.343Z,18.27
2022-12-25T10:38:55.909Z,19.35
2022-12-25T10:39:57.454Z,15.52
2022-12-25T10:41:37.881Z,17.92
2022-12-25T10:42:46.143Z,18.17
2022-12-25T10:43:51.769Z,17.20
2022-12-25T10:45:04.412Z,20.50
2022-12-25T10:46:13.437Z,15.93
2022-12-25T10:47:24.394Z,14.75
2022-12-25T10:48:29.236Z,14.95
2022-12-25T10:49:34.691Z,14.27
2022-12-25T10:50:43.163Z,15.25
2022-12-25T10:51:44.679Z,15.05
2022-12-25T10:53:00.616Z,14.25
2022-12-25T10:54:03.967Z,14.35
2022-12-25T10:55:13.520Z,15.50
2022-12-25T10:56:18.794Z,17.63
2022-12-25T10:57:23.507Z,17.67
2022-12-25T10:58:25.152Z,18.48
2022-12-25T10:59:29.724Z,16.85
2022-12-25T11:00:32.635Z,17.63
2022-12-25T11:01:34.357Z,16.30
2022-12-25T11:02:40.175Z,17.60
2022-12-25T11:03:46.544Z,18.85
2022-12-25T11:04:48.546Z,17.83
2022-12-25T11:05:51.644Z,19.23
2022-12-25T11:06:58.503Z,19.65
2022-12-25T11:08:02.434Z,18.48
2022-12-25T11:09:04.027Z,19.10
2022-12-25T11:10:19.012Z,18.30
2022-12-25T11:11:24.016Z,19.10
2022-12-25T11:12:36.899Z,19.40
2022-12-25T11:13:49.904Z,19.08
2022-12-25T11:14:54.177Z,19.95
2022-12-25T11:16:09.686Z,20.15
2022-12-25T11:17:21.569Z,20.83
2022-12-25T11:18:28.943Z,20.73
2022-12-25T11:19:32.388Z,21.52
2022-12-25T11:20:33.928Z,20.38
2022-12-25T11:21:37.420Z,19.05
2022-12-25T11:22:45.762Z,19.13
2022-12-25T11:23:49.691Z,18.85
2022-12-25T11:24:51.688Z,19.27
2022-12-25T11:26:07.277Z,18.80
2022-12-25T11:27:28.143Z,17.67
2022-12-25T11:28:32.703Z,18.02
2022-12-25T11:29:42.891Z,18.35
2022-12-25T11:30:48.277Z,19.42
2022-12-25T11:31:52.717Z,21.20
2022-12-25T11:32:56.231Z,20.63
2022-12-25T11:34:05.425Z,19.90
2022-12-25T11:35:13.255Z,19.50
2022-12-25T11:36:34.919Z,20.67
2022-12-25T11:37:43.410Z,19.95
2022-12-25T11:38:47.866Z,15.50
2022-12-25T11:39:49.369Z,15.75
2022-12-25T11:41:01.074Z,16.17
2022-12-25T11:42:17.467Z,15.63
2022-12-25T11:43:34.949Z,15.15
2022-12-25T11:45:00.706Z,14.38
2022-12-25T11:46:17.434Z,14.23
2022-12-25T11:47:24.467Z,14.15
2022-12-25T11:48:40.562Z,14.70
2022-12-25T11:50:00.220Z,14.30
2022-12-25T11:51:05.736Z,12.50
2022-12-25T11:52:11.403Z,12.95
2022-12-25T11:53:32.675Z,13.95
2022-12-25T11:54:47.077Z,14.85
2022-12-25T11:55:57.126Z,14.60
2022-12-25T11:57:03.864Z,16.73
2022-12-25T11:58:21.609Z,13.15
2022-12-25T11:59:29.032Z,13.15
2022-12-25T12:00:33.372Z,13.55
2022-12-25T12:01:50.034Z,12.77
2022-12-25T12:03:01.824Z,12.93
2022-12-25T12:04:08.393Z,12.25
2022-12-25T12:05:22.095Z,13.20
2022-12-25T12:06:35.399Z,12.45
2022-12-25T12:07:39.864Z,13.32
2022-12-25T12:08:42.682Z,13.38
2022-12-25T12:10:02.197Z,14.05
2022-12-25T12:11:16.112Z,14.52
2022-12-25T12:12:36.748Z,15.45
2022-12-25T12:13:53.983Z,14.35
2022-12-25T12:15:19.411Z,17.52
2022-12-25T12:16:20.940Z,14.05
2022-12-25T12:17:22.457Z,13.43
2022-12-25T12:18:26.859Z,13.38
2022-12-25T12:19:30.471Z,12.55
2022-12-25T12:20:34.691Z,14.15
2022-12-25T12:21:36.381Z,12.52
2022-12-25T12:22:38.052Z,13.40
2022-12-25T12:24:07.589Z,13.45
2022-12-25T12:25:16.896Z,13.25
2022-12-25T12:26:21.577Z,12.45
2022-12-25T12:27:37.474Z,12.32
2022-12-25T12:28:48.011Z,12.65
2022-12-25T12:29:59.827Z,12.48
2022-12-25T12:31:06.869Z,11.48
2022-12-25T12:32:22.072Z,11.20
2022-12-25T12:33:27.990Z,12.10
2022-12-25T12:34:37.702Z,13.23
2022-12-25T12:35:40.479Z,11.82
2022-12-25T12:36:42.026Z,12.40
2022-12-25T12:37:46.163Z,12.70
2022-12-25T12:38:49.355Z,13.23
2022-12-25T12:39:54.181Z,12.52
2022-12-25T12:40:55.504Z,12.00
2022-12-25T12:41:57.000Z,11.57
2022-12-25T12:42:59.127Z,12.65
2022-12-25T12:45:30.180Z,10.23
2022-12-25T12:46:39.877Z,9.75
2022-12-25T12:47:44.683Z,10.98
2022-12-25T12:48:49.218Z,11.07
2022-12-25T12:49:57.938Z,13.63
2022-12-25T12:51:08.710Z,11.68
2022-12-25T12:52:31.999Z,12.15
2022-12-25T12:53:33.861Z,12.23
2022-12-25T12:54:54.717Z,12.30
2022-12-25T12:55:56.548Z,11.25
2022-12-25T12:57:03.413Z,12.00
2022-12-25T12:58:06.102Z,10.82
2022-12-25T12:59:09.648Z,11.43
2022-12-25T13:00:21.196Z,11.93
2022-12-25T13:01:34.783Z,11.48
2022-12-25T13:02:39.184Z,11.60
2022-12-25T13:03:52.757Z,11.25
2022-12-25T13:05:33.989Z,11.98
2022-12-25T13:06:59.006Z,10.43
2022-12-25T13:08:22.007Z,9.93
2022-12-25T13:09:23.394Z,10.60
2022-12-25T13:10:46.778Z,11.45
2022-12-25T13:11:49.223Z,10.55
2022-12-25T13:12:54.719Z,11.40
2022-12-25T13:14:00.839Z,11.85
2022-12-25T13:15:02.337Z,10.63
2022-12-25T13:16:04.725Z,11.98
2022-12-25T13:17:08.659Z,11.20
2022-12-25T13:18:12.787Z,10.65
2022-12-25T13:19:18.113Z,11.23
2022-12-25T13:20:49.377Z,11.27
2022-12-25T13:22:02.325Z,11.07
2022-12-25T13:23:13.848Z,9.90
2022-12-25T13:24:24.419Z,9.80
2022-12-25T13:25:25.919Z,9.75
2022-12-25T13:26:28.598Z,10.35
2022-12-25T13:27:32.202Z,10.80
2022-12-25T13:28:35.811Z,10.13
2022-12-25T13:29:38.642Z,10.48
2022-12-25T13:30:40.094Z,10.68
2022-12-25T13:31:41.959Z,10.23
2022-12-25T13:32:45.673Z,10.25
2022-12-25T13:33:59.728Z,9.73
2022-12-25T13:35:01.242Z,10.85
2022-12-25T13:36:02.816Z,10.02
2022-12-25T13:37:27.441Z,10.70
2022-12-25T13:38:29.641Z,9.52
2022-12-25T13:39:31.454Z,9.35
2022-12-25T13:40:33.967Z,10.35
2022-12-25T13:42:03.962Z,9.88
2022-12-25T13:43:05.455Z,10.43
2022-12-25T13:44:18.237Z,12.20
2022-12-25T13:45:24.202Z,10.27
2022-12-25T13:46:27.773Z,11.30
2022-12-25T13:47:41.679Z,11.20
2022-12-25T13:48:43.135Z,11.18
2022-12-25T13:49:45.961Z,10.73
2022-12-25T13:50:57.126Z,10.98
2022-12-25T13:52:11.785Z,10.27
2022-12-25T13:53:17.067Z,11.40
2022-12-25T13:54:18.799Z,11.70
2022-12-25T13:55:28.179Z,12.02
2022-12-25T13:56:29.715Z,12.15
2022-12-25T13:57:39.778Z,12.32
2022-12-25T13:58:44.025Z,12.18
2022-12-25T13:59:45.581Z,12.65
2022-12-25T14:00:48.750Z,12.93
2022-12-25T14:01:52.254Z,12.43
2022-12-25T14:02:54.895Z,13.57
2022-12-25T14:03:56.602Z,12.90
2022-12-25T14:04:58.319Z,12.52
2022-12-25T14:06:05.777Z,11.85
2022-12-25T14:07:12.024Z,11.68
2022-12-25T14:08:16.676Z,12.73
2022-12-25T14:09:18.812Z,12.10
2022-12-25T14:11:25.334Z,11.32
2022-12-25T14:12:30.154Z,12.85
2022-12-25T14:13:35.611Z,12.48
2022-12-25T14:14:37.421Z,13.10
2022-12-25T14:15:40.457Z,13.73
2022-12-25T14:16:43.574Z,14.02
2022-12-25T14:17:45.828Z,13.27
2022-12-25T14:18:56.303Z,14.45
2022-12-25T14:20:06.046Z,14.30
2022-12-25T14:21:41.714Z,13.05
2022-12-25T14:22:51.126Z,12.10
2022-12-25T14:23:52.791Z,13.13
2022-12-25T14:24:54.313Z,13.27
2022-12-25T14:25:56.724Z,14.15
2022-12-25T14:27:03.957Z,15.07
2022-12-25T14:28:17.944Z,13.55
2022-12-25T14:29:23.691Z,14.38
2022-12-25T14:30:29.699Z,13.10
2022-12-25T14:31:32.718Z,14.02
2022-12-25T14:32:43.020Z,13.15
2022-12-25T14:33:45.953Z,11.50
2022-12-25T14:34:51.332Z,12.70
2022-12-25T14:35:53.304Z,13.43
2022-12-25T14:36:55.148Z,13.07
2022-12-25T14:38:00.067Z,14.40
2022-12-25T14:39:05.426Z,14.73
2022-12-25T14:40:26.330Z,14.77
2022-12-25T14:41:41.654Z,14.93
2022-12-25T14:42:43.127Z,14.48
2022-12-25T14:44:24.451Z,14.48
2022-12-25T14:45:25.895Z,12.75
2022-12-25T14:46:30.305Z,15.10